sensor_id;sensor_type;location;lat;lon;timestamp;P1;durP1;ratioP1;P2;durP2;ratioP2
77705;SDS011;66874;45.274;5.880;2023-05-09T00:02:00;0.98;;;0.82;;
77705;SDS011;66874;45.274;5.880;2023-05-09T00:04:26;1.10;;;1.00;;
77705;SDS011;66874;45.274;5.880;2023-05-09T00:06:51;1.05;;;0.95;;
77705;SDS011;66874;45.274;5.880;2023-05-09T00:09:16;1.15;;;0.90;;
77705;SDS011;66874;45.274;5.880;2023-05-09T00:11:43;1.63;;;1.00;;
77705;SDS011;66874;45.274;5.880;2023-05-09T00:14:09;1.13;;;0.90;;
77705;SDS011;66874;45.274;5.880;2023-05-09T00:16:36;3.30;;;1.10;;
77705;SDS011;66874;45.274;5.880;2023-05-09T00:19:02;1.80;;;0.85;;
77705;SDS011;66874;45.274;5.880;2023-05-09T00:21:28;1.98;;;1.50;;
77705;SDS011;66874;45.274;5.880;2023-05-09T00:23:54;1.67;;;1.20;;
77705;SDS011;66874;45.274;5.880;2023-05-09T00:26:20;1.05;;;0.90;;
77705;SDS011;66874;45.274;5.880;2023-05-09T00:28:46;1.98;;;1.23;;
77705;SDS011;66874;45.274;5.880;2023-05-09T00:31:12;1.40;;;0.98;;
77705;SDS011;66874;45.274;5.880;2023-05-09T00:33:37;1.50;;;1.05;;
77705;SDS011;66874;45.274;5.880;2023-05-09T00:36:03;3.83;;;1.10;;
77705;SDS011;66874;45.274;5.880;2023-05-09T00:38:29;1.98;;;1.20;;
77705;SDS011;66874;45.274;5.880;2023-05-09T00:40:54;2.08;;;1.25;;
77705;SDS011;66874;45.274;5.880;2023-05-09T00:43:20;2.40;;;1.00;;
77705;SDS011;66874;45.274;5.880;2023-05-09T00:45:45;2.65;;;1.20;;
77705;SDS011;66874;45.274;5.880;2023-05-09T00:48:11;1.48;;;1.00;;
77705;SDS011;66874;45.274;5.880;2023-05-09T00:50:39;1.58;;;0.88;;
77705;SDS011;66874;45.274;5.880;2023-05-09T00:53:04;1.23;;;1.13;;
77705;SDS011;66874;45.274;5.880;2023-05-09T00:55:30;2.42;;;0.95;;
77705;SDS011;66874;45.274;5.880;2023-05-09T00:57:56;1.70;;;0.90;;
77705;SDS011;66874;45.274;5.880;2023-05-09T01:00:21;1.55;;;1.38;;
77705;SDS011;66874;45.274;5.880;2023-05-09T01:02:48;1.15;;;1.02;;
77705;SDS011;66874;45.274;5.880;2023-05-09T01:05:17;1.15;;;1.05;;
77705;SDS011;66874;45.274;5.880;2023-05-09T01:07:51;2.10;;;1.13;;
77705;SDS011;66874;45.274;5.880;2023-05-09T01:10:30;1.48;;;1.38;;
77705;SDS011;66874;45.274;5.880;2023-05-09T01:13:03;1.45;;;1.10;;
77705;SDS011;66874;45.274;5.880;2023-05-09T01:15:40;1.40;;;1.08;;
77705;SDS011;66874;45.274;5.880;2023-05-09T01:18:14;1.30;;;1.20;;
77705;SDS011;66874;45.274;5.880;2023-05-09T01:20:46;1.85;;;0.90;;
77705;SDS011;66874;45.274;5.880;2023-05-09T01:26:17;1.88;;;1.05;;
77705;SDS011;66874;45.274;5.880;2023-05-09T01:32:04;1.23;;;1.13;;
77705;SDS011;66874;45.274;5.880;2023-05-09T01:34:33;1.30;;;1.20;;
77705;SDS011;66874;45.274;5.880;2023-05-09T01:37:02;0.98;;;0.95;;
77705;SDS011;66874;45.274;5.880;2023-05-09T01:39:29;1.23;;;1.13;;
77705;SDS011;66874;45.274;5.880;2023-05-09T01:41:59;4.60;;;1.30;;
77705;SDS011;66874;45.274;5.880;2023-05-09T01:44:27;1.92;;;1.20;;
77705;SDS011;66874;45.274;5.880;2023-05-09T01:46:56;1.65;;;1.20;;
77705;SDS011;66874;45.274;5.880;2023-05-09T01:49:23;3.70;;;1.55;;
77705;SDS011;66874;45.274;5.880;2023-05-09T01:51:50;3.33;;;1.60;;
77705;SDS011;66874;45.274;5.880;2023-05-09T01:54:18;5.18;;;1.30;;
77705;SDS011;66874;45.274;5.880;2023-05-09T01:56:46;1.33;;;1.23;;
77705;SDS011;66874;45.274;5.880;2023-05-09T01:59:11;5.05;;;1.48;;
77705;SDS011;66874;45.274;5.880;2023-05-09T02:01:40;1.10;;;1.00;;
77705;SDS011;66874;45.274;5.880;2023-05-09T02:04:07;1.67;;;1.10;;
77705;SDS011;66874;45.274;5.880;2023-05-09T02:06:32;1.48;;;1.20;;
77705;SDS011;66874;45.274;5.880;2023-05-09T02:08:59;1.35;;;1.00;;
77705;SDS011;66874;45.274;5.880;2023-05-09T02:11:25;2.35;;;1.35;;
77705;SDS011;66874;45.274;5.880;2023-05-09T02:13:51;2.65;;;1.10;;
77705;SDS011;66874;45.274;5.880;2023-05-09T02:16:16;1.55;;;1.20;;
77705;SDS011;66874;45.274;5.880;2023-05-09T02:18:42;4.80;;;1.20;;
77705;SDS011;66874;45.274;5.880;2023-05-09T02:21:07;2.28;;;1.60;;
77705;SDS011;66874;45.274;5.880;2023-05-09T02:23:33;1.88;;;1.20;;
77705;SDS011;66874;45.274;5.880;2023-05-09T02:25:59;2.35;;;1.20;;
77705;SDS011;66874;45.274;5.880;2023-05-09T02:28:25;3.90;;;1.30;;
77705;SDS011;66874;45.274;5.880;2023-05-09T02:30:51;1.65;;;1.10;;
77705;SDS011;66874;45.274;5.880;2023-05-09T02:33:19;4.70;;;1.10;;
77705;SDS011;66874;45.274;5.880;2023-05-09T02:35:45;3.22;;;1.20;;
77705;SDS011;66874;45.274;5.880;2023-05-09T02:38:12;1.20;;;1.10;;
77705;SDS011;66874;45.274;5.880;2023-05-09T02:40:38;1.40;;;1.23;;
77705;SDS011;66874;45.274;5.880;2023-05-09T02:43:04;2.97;;;1.23;;
77705;SDS011;66874;45.274;5.880;2023-05-09T02:45:29;3.95;;;2.00;;
77705;SDS011;66874;45.274;5.880;2023-05-09T02:47:56;1.38;;;1.20;;
77705;SDS011;66874;45.274;5.880;2023-05-09T02:50:21;1.20;;;1.10;;
77705;SDS011;66874;45.274;5.880;2023-05-09T02:52:47;1.23;;;1.13;;
77705;SDS011;66874;45.274;5.880;2023-05-09T02:55:12;1.23;;;1.10;;
77705;SDS011;66874;45.274;5.880;2023-05-09T02:57:37;1.73;;;1.25;;
77705;SDS011;66874;45.274;5.880;2023-05-09T03:00:03;2.38;;;1.27;;
77705;SDS011;66874;45.274;5.880;2023-05-09T03:02:33;2.53;;;1.25;;
77705;SDS011;66874;45.274;5.880;2023-05-09T03:04:59;1.85;;;1.38;;
77705;SDS011;66874;45.274;5.880;2023-05-09T03:07:25;2.03;;;1.17;;
77705;SDS011;66874;45.274;5.880;2023-05-09T03:09:50;2.05;;;1.70;;
77705;SDS011;66874;45.274;5.880;2023-05-09T03:12:15;2.60;;;1.30;;
77705;SDS011;66874;45.274;5.880;2023-05-09T03:14:41;1.50;;;1.17;;
77705;SDS011;66874;45.274;5.880;2023-05-09T03:17:06;2.95;;;1.35;;
77705;SDS011;66874;45.274;5.880;2023-05-09T03:19:31;1.50;;;1.40;;
77705;SDS011;66874;45.274;5.880;2023-05-09T03:21:57;1.70;;;1.35;;
77705;SDS011;66874;45.274;5.880;2023-05-09T03:24:24;2.00;;;1.80;;
77705;SDS011;66874;45.274;5.880;2023-05-09T03:26:52;2.83;;;1.65;;
77705;SDS011;66874;45.274;5.880;2023-05-09T03:29:17;3.65;;;1.30;;
77705;SDS011;66874;45.274;5.880;2023-05-09T03:31:43;5.47;;;1.35;;
77705;SDS011;66874;45.274;5.880;2023-05-09T03:34:08;1.83;;;1.48;;
77705;SDS011;66874;45.274;5.880;2023-05-09T03:36:38;1.48;;;1.20;;
77705;SDS011;66874;45.274;5.880;2023-05-09T03:39:10;3.63;;;1.25;;
77705;SDS011;66874;45.274;5.880;2023-05-09T03:41:35;1.70;;;1.20;;
77705;SDS011;66874;45.274;5.880;2023-05-09T03:44:01;5.03;;;1.73;;
77705;SDS011;66874;45.274;5.880;2023-05-09T03:46:27;2.83;;;1.30;;
77705;SDS011;66874;45.274;5.880;2023-05-09T03:48:53;3.28;;;1.23;;
77705;SDS011;66874;45.274;5.880;2023-05-09T03:51:19;3.20;;;1.30;;
77705;SDS011;66874;45.274;5.880;2023-05-09T03:53:45;1.67;;;1.30;;
77705;SDS011;66874;45.274;5.880;2023-05-09T03:56:11;3.28;;;1.70;;
77705;SDS011;66874;45.274;5.880;2023-05-09T03:58:37;2.72;;;1.30;;
77705;SDS011;66874;45.274;5.880;2023-05-09T04:01:03;1.50;;;1.30;;
77705;SDS011;66874;45.274;5.880;2023-05-09T04:03:28;5.03;;;1.60;;
77705;SDS011;66874;45.274;5.880;2023-05-09T04:05:54;2.47;;;1.58;;
77705;SDS011;66874;45.274;5.880;2023-05-09T04:08:20;1.75;;;1.40;;
77705;SDS011;66874;45.274;5.880;2023-05-09T04:10:45;2.25;;;1.65;;
77705;SDS011;66874;45.274;5.880;2023-05-09T04:13:11;1.58;;;1.27;;
77705;SDS011;66874;45.274;5.880;2023-05-09T04:15:36;1.20;;;1.10;;
77705;SDS011;66874;45.274;5.880;2023-05-09T04:18:01;1.70;;;1.50;;
77705;SDS011;66874;45.274;5.880;2023-05-09T04:20:27;1.50;;;1.40;;
77705;SDS011;66874;45.274;5.880;2023-05-09T04:22:52;2.30;;;1.77;;
77705;SDS011;66874;45.274;5.880;2023-05-09T04:25:18;3.08;;;1.77;;
77705;SDS011;66874;45.274;5.880;2023-05-09T04:27:44;3.30;;;1.90;;
77705;SDS011;66874;45.274;5.880;2023-05-09T04:30:10;5.22;;;1.88;;
77705;SDS011;66874;45.274;5.880;2023-05-09T04:32:36;1.98;;;1.80;;
77705;SDS011;66874;45.274;5.880;2023-05-09T04:35:02;2.50;;;1.67;;
77705;SDS011;66874;45.274;5.880;2023-05-09T04:37:28;1.77;;;1.67;;
77705;SDS011;66874;45.274;5.880;2023-05-09T04:39:55;3.53;;;1.83;;
77705;SDS011;66874;45.274;5.880;2023-05-09T04:42:20;4.10;;;1.70;;
77705;SDS011;66874;45.274;5.880;2023-05-09T04:44:46;3.13;;;1.70;;
77705;SDS011;66874;45.274;5.880;2023-05-09T04:47:13;2.97;;;1.50;;
77705;SDS011;66874;45.274;5.880;2023-05-09T04:49:38;1.80;;;1.40;;
77705;SDS011;66874;45.274;5.880;2023-05-09T04:52:04;1.90;;;1.65;;
77705;SDS011;66874;45.274;5.880;2023-05-09T04:54:30;2.72;;;1.67;;
77705;SDS011;66874;45.274;5.880;2023-05-09T04:56:56;1.45;;;1.35;;
77705;SDS011;66874;45.274;5.880;2023-05-09T04:59:21;2.28;;;1.63;;
77705;SDS011;66874;45.274;5.880;2023-05-09T05:01:47;1.90;;;1.50;;
77705;SDS011;66874;45.274;5.880;2023-05-09T05:04:12;1.58;;;1.38;;
77705;SDS011;66874;45.274;5.880;2023-05-09T05:06:38;4.50;;;1.88;;
77705;SDS011;66874;45.274;5.880;2023-05-09T05:09:03;1.77;;;1.63;;
77705;SDS011;66874;45.274;5.880;2023-05-09T05:11:29;2.88;;;1.50;;
77705;SDS011;66874;45.274;5.880;2023-05-09T05:13:54;1.75;;;1.42;;
77705;SDS011;66874;45.274;5.880;2023-05-09T05:16:19;2.55;;;1.60;;
77705;SDS011;66874;45.274;5.880;2023-05-09T05:18:45;3.67;;;1.50;;
77705;SDS011;66874;45.274;5.880;2023-05-09T05:21:10;10.40;;;1.90;;
77705;SDS011;66874;45.274;5.880;2023-05-09T05:23:35;1.67;;;1.35;;
77705;SDS011;66874;45.274;5.880;2023-05-09T05:26:01;2.90;;;1.52;;
77705;SDS011;66874;45.274;5.880;2023-05-09T05:28:26;1.52;;;1.42;;
77705;SDS011;66874;45.274;5.880;2023-05-09T05:30:52;3.88;;;1.85;;
77705;SDS011;66874;45.274;5.880;2023-05-09T05:33:17;8.30;;;1.80;;
77705;SDS011;66874;45.274;5.880;2023-05-09T05:35:43;1.95;;;1.42;;
77705;SDS011;66874;45.274;5.880;2023-05-09T05:38:08;1.90;;;1.70;;
77705;SDS011;66874;45.274;5.880;2023-05-09T05:40:33;2.28;;;1.60;;
77705;SDS011;66874;45.274;5.880;2023-05-09T05:42:59;2.25;;;1.75;;
77705;SDS011;66874;45.274;5.880;2023-05-09T05:45:25;3.50;;;1.67;;
77705;SDS011;66874;45.274;5.880;2023-05-09T05:47:50;3.03;;;1.65;;
77705;SDS011;66874;45.274;5.880;2023-05-09T05:50:16;3.13;;;1.88;;
77705;SDS011;66874;45.274;5.880;2023-05-09T05:52:41;1.90;;;1.70;;
77705;SDS011;66874;45.274;5.880;2023-05-09T05:55:07;4.63;;;2.15;;
77705;SDS011;66874;45.274;5.880;2023-05-09T05:57:33;2.55;;;1.63;;
77705;SDS011;66874;45.274;5.880;2023-05-09T05:59:59;1.95;;;1.83;;
77705;SDS011;66874;45.274;5.880;2023-05-09T06:02:25;3.17;;;1.80;;
77705;SDS011;66874;45.274;5.880;2023-05-09T06:04:50;6.53;;;2.22;;
77705;SDS011;66874;45.274;5.880;2023-05-09T06:07:16;2.17;;;1.67;;
77705;SDS011;66874;45.274;5.880;2023-05-09T06:09:41;2.38;;;1.73;;
77705;SDS011;66874;45.274;5.880;2023-05-09T06:12:07;4.15;;;1.80;;
77705;SDS011;66874;45.274;5.880;2023-05-09T06:14:32;3.05;;;1.90;;
77705;SDS011;66874;45.274;5.880;2023-05-09T06:16:58;5.18;;;1.92;;
77705;SDS011;66874;45.274;5.880;2023-05-09T06:19:23;4.97;;;2.00;;
77705;SDS011;66874;45.274;5.880;2023-05-09T06:21:49;2.70;;;1.90;;
77705;SDS011;66874;45.274;5.880;2023-05-09T06:24:14;2.72;;;1.95;;
77705;SDS011;66874;45.274;5.880;2023-05-09T06:26:40;2.00;;;1.38;;
77705;SDS011;66874;45.274;5.880;2023-05-09T06:29:05;3.88;;;2.05;;
77705;SDS011;66874;45.274;5.880;2023-05-09T06:31:31;1.80;;;1.65;;
77705;SDS011;66874;45.274;5.880;2023-05-09T06:33:59;9.15;;;3.80;;
77705;SDS011;66874;45.274;5.880;2023-05-09T06:36:25;8.55;;;4.10;;
77705;SDS011;66874;45.274;5.880;2023-05-09T06:38:50;3.53;;;2.35;;
77705;SDS011;66874;45.274;5.880;2023-05-09T06:41:16;5.00;;;2.10;;
77705;SDS011;66874;45.274;5.880;2023-05-09T06:43:41;1.95;;;1.48;;
77705;SDS011;66874;45.274;5.880;2023-05-09T06:46:07;4.10;;;1.73;;
77705;SDS011;66874;45.274;5.880;2023-05-09T06:48:32;2.83;;;1.65;;
77705;SDS011;66874;45.274;5.880;2023-05-09T06:50:57;2.88;;;1.40;;
77705;SDS011;66874;45.274;5.880;2023-05-09T06:53:23;4.18;;;1.90;;
77705;SDS011;66874;45.274;5.880;2023-05-09T06:55:48;1.67;;;1.42;;
77705;SDS011;66874;45.274;5.880;2023-05-09T06:58:13;1.45;;;1.35;;
77705;SDS011;66874;45.274;5.880;2023-05-09T07:00:39;1.83;;;1.58;;
77705;SDS011;66874;45.274;5.880;2023-05-09T07:03:04;2.08;;;1.30;;
77705;SDS011;66874;45.274;5.880;2023-05-09T07:05:31;2.70;;;1.58;;
77705;SDS011;66874;45.274;5.880;2023-05-09T07:07:57;1.85;;;1.50;;
77705;SDS011;66874;45.274;5.880;2023-05-09T07:10:23;2.90;;;1.65;;
77705;SDS011;66874;45.274;5.880;2023-05-09T07:12:48;2.05;;;1.58;;
77705;SDS011;66874;45.274;5.880;2023-05-09T07:15:14;2.55;;;1.50;;
77705;SDS011;66874;45.274;5.880;2023-05-09T07:17:40;6.38;;;1.85;;
77705;SDS011;66874;45.274;5.880;2023-05-09T07:20:05;5.00;;;1.98;;
77705;SDS011;66874;45.274;5.880;2023-05-09T07:22:31;4.30;;;2.08;;
77705;SDS011;66874;45.274;5.880;2023-05-09T07:24:56;6.75;;;2.13;;
77705;SDS011;66874;45.274;5.880;2023-05-09T07:27:22;1.90;;;1.80;;
77705;SDS011;66874;45.274;5.880;2023-05-09T07:29:47;3.80;;;2.10;;
77705;SDS011;66874;45.274;5.880;2023-05-09T07:32:19;2.60;;;2.10;;
77705;SDS011;66874;45.274;5.880;2023-05-09T07:34:45;2.67;;;1.75;;
77705;SDS011;66874;45.274;5.880;2023-05-09T07:37:11;3.17;;;2.17;;
77705;SDS011;66874;45.274;5.880;2023-05-09T07:39:36;2.10;;;1.90;;
77705;SDS011;66874;45.274;5.880;2023-05-09T07:42:02;2.70;;;2.20;;
77705;SDS011;66874;45.274;5.880;2023-05-09T07:44:27;5.43;;;2.20;;
77705;SDS011;66874;45.274;5.880;2023-05-09T07:46:53;2.60;;;1.92;;
77705;SDS011;66874;45.274;5.880;2023-05-09T07:49:23;3.17;;;1.98;;
77705;SDS011;66874;45.274;5.880;2023-05-09T07:51:49;2.85;;;2.28;;
77705;SDS011;66874;45.274;5.880;2023-05-09T07:54:15;4.82;;;1.90;;
77705;SDS011;66874;45.274;5.880;2023-05-09T07:56:40;7.07;;;2.47;;
77705;SDS011;66874;45.274;5.880;2023-05-09T07:59:06;5.93;;;2.40;;
77705;SDS011;66874;45.274;5.880;2023-05-09T08:01:31;4.72;;;2.50;;
77705;SDS011;66874;45.274;5.880;2023-05-09T08:03:57;8.63;;;2.75;;
77705;SDS011;66874;45.274;5.880;2023-05-09T08:06:22;2.70;;;2.13;;
77705;SDS011;66874;45.274;5.880;2023-05-09T08:08:47;4.53;;;2.38;;
77705;SDS011;66874;45.274;5.880;2023-05-09T08:11:13;7.25;;;2.40;;
77705;SDS011;66874;45.274;5.880;2023-05-09T08:13:38;3.60;;;2.35;;
77705;SDS011;66874;45.274;5.880;2023-05-09T08:16:04;7.10;;;2.60;;
77705;SDS011;66874;45.274;5.880;2023-05-09T08:18:29;3.42;;;2.20;;
77705;SDS011;66874;45.274;5.880;2023-05-09T08:20:55;5.38;;;2.25;;
77705;SDS011;66874;45.274;5.880;2023-05-09T08:23:21;4.70;;;1.80;;
77705;SDS011;66874;45.274;5.880;2023-05-09T08:25:46;3.42;;;2.28;;
77705;SDS011;66874;45.274;5.880;2023-05-09T08:28:11;4.03;;;1.92;;
77705;SDS011;66874;45.274;5.880;2023-05-09T08:30:37;3.72;;;2.67;;
77705;SDS011;66874;45.274;5.880;2023-05-09T08:33:02;3.58;;;2.38;;
77705;SDS011;66874;45.274;5.880;2023-05-09T08:35:28;5.65;;;2.47;;
77705;SDS011;66874;45.274;5.880;2023-05-09T08:37:53;5.43;;;2.38;;
77705;SDS011;66874;45.274;5.880;2023-05-09T08:40:18;3.65;;;2.20;;
77705;SDS011;66874;45.274;5.880;2023-05-09T08:42:44;4.07;;;2.58;;
77705;SDS011;66874;45.274;5.880;2023-05-09T08:45:13;4.57;;;2.55;;
77705;SDS011;66874;45.274;5.880;2023-05-09T08:47:40;9.95;;;2.60;;
77705;SDS011;66874;45.274;5.880;2023-05-09T08:50:07;5.53;;;2.75;;
77705;SDS011;66874;45.274;5.880;2023-05-09T08:52:34;5.90;;;2.90;;
77705;SDS011;66874;45.274;5.880;2023-05-09T08:55:00;3.50;;;2.50;;
77705;SDS011;66874;45.274;5.880;2023-05-09T08:57:28;7.90;;;2.40;;
77705;SDS011;66874;45.274;5.880;2023-05-09T09:02:22;4.53;;;2.80;;
77705;SDS011;66874;45.274;5.880;2023-05-09T09:04:48;4.50;;;2.72;;
77705;SDS011;66874;45.274;5.880;2023-05-09T09:07:13;7.28;;;2.90;;
77705;SDS011;66874;45.274;5.880;2023-05-09T09:09:44;5.15;;;3.13;;
77705;SDS011;66874;45.274;5.880;2023-05-09T09:12:11;5.72;;;2.75;;
77705;SDS011;66874;45.274;5.880;2023-05-09T09:14:40;6.72;;;2.75;;
77705;SDS011;66874;45.274;5.880;2023-05-09T09:17:09;3.53;;;3.00;;
77705;SDS011;66874;45.274;5.880;2023-05-09T09:19:38;4.82;;;3.15;;
77705;SDS011;66874;45.274;5.880;2023-05-09T09:22:07;5.50;;;3.20;;
77705;SDS011;66874;45.274;5.880;2023-05-09T09:24:36;5.60;;;2.88;;
77705;SDS011;66874;45.274;5.880;2023-05-09T09:27:04;5.55;;;2.80;;
77705;SDS011;66874;45.274;5.880;2023-05-09T09:29:30;6.22;;;2.92;;
77705;SDS011;66874;45.274;5.880;2023-05-09T09:32:00;6.22;;;2.88;;
77705;SDS011;66874;45.274;5.880;2023-05-09T09:34:26;9.15;;;3.08;;
77705;SDS011;66874;45.274;5.880;2023-05-09T09:36:52;4.90;;;2.78;;
77705;SDS011;66874;45.274;5.880;2023-05-09T09:39:17;3.08;;;2.03;;
77705;SDS011;66874;45.274;5.880;2023-05-09T09:41:43;2.60;;;1.58;;
77705;SDS011;66874;45.274;5.880;2023-05-09T09:44:19;1.77;;;1.35;;
77705;SDS011;66874;45.274;5.880;2023-05-09T09:49:12;4.40;;;1.30;;
77705;SDS011;66874;45.274;5.880;2023-05-09T09:51:39;3.03;;;1.70;;
77705;SDS011;66874;45.274;5.880;2023-05-09T09:54:05;6.00;;;1.58;;
77705;SDS011;66874;45.274;5.880;2023-05-09T09:56:38;2.13;;;1.38;;
77705;SDS011;66874;45.274;5.880;2023-05-09T09:59:12;2.75;;;1.40;;
77705;SDS011;66874;45.274;5.880;2023-05-09T10:01:58;2.63;;;1.90;;
77705;SDS011;66874;45.274;5.880;2023-05-09T10:04:32;3.20;;;1.35;;
77705;SDS011;66874;45.274;5.880;2023-05-09T10:07:08;4.43;;;1.40;;
77705;SDS011;66874;45.274;5.880;2023-05-09T10:09:35;3.60;;;1.55;;
77705;SDS011;66874;45.274;5.880;2023-05-09T10:12:04;2.95;;;1.35;;
77705;SDS011;66874;45.274;5.880;2023-05-09T10:16:57;4.00;;;1.60;;
77705;SDS011;66874;45.274;5.880;2023-05-09T10:19:26;2.58;;;1.45;;
77705;SDS011;66874;45.274;5.880;2023-05-09T10:22:27;5.07;;;1.30;;
77705;SDS011;66874;45.274;5.880;2023-05-09T10:24:46;8.05;;;1.77;;
77705;SDS011;66874;45.274;5.880;2023-05-09T10:27:21;6.90;;;1.48;;
77705;SDS011;66874;45.274;5.880;2023-05-09T10:29:53;5.28;;;1.40;;
77705;SDS011;66874;45.274;5.880;2023-05-09T10:32:30;3.53;;;1.40;;
77705;SDS011;66874;45.274;5.880;2023-05-09T10:35:05;10.45;;;1.58;;
77705;SDS011;66874;45.274;5.880;2023-05-09T10:37:34;5.47;;;1.38;;
77705;SDS011;66874;45.274;5.880;2023-05-09T10:40:02;5.07;;;1.38;;
77705;SDS011;66874;45.274;5.880;2023-05-09T10:42:29;3.67;;;1.52;;
77705;SDS011;66874;45.274;5.880;2023-05-09T10:44:56;6.83;;;1.87;;
77705;SDS011;66874;45.274;5.880;2023-05-09T10:47:22;1.98;;;1.30;;
77705;SDS011;66874;45.274;5.880;2023-05-09T10:49:53;6.53;;;1.30;;
77705;SDS011;66874;45.274;5.880;2023-05-09T10:52:22;4.38;;;1.42;;
77705;SDS011;66874;45.274;5.880;2023-05-09T10:55:00;5.20;;;1.30;;
77705;SDS011;66874;45.274;5.880;2023-05-09T10:57:27;2.10;;;1.60;;
77705;SDS011;66874;45.274;5.880;2023-05-09T10:59:55;6.72;;;1.60;;
77705;SDS011;66874;45.274;5.880;2023-05-09T11:02:21;5.40;;;1.73;;
77705;SDS011;66874;45.274;5.880;2023-05-09T11:05:17;1.88;;;1.42;;
77705;SDS011;66874;45.274;5.880;2023-05-09T11:07:44;1.05;;;1.05;;
77705;SDS011;66874;45.274;5.880;2023-05-09T11:10:16;1.33;;;1.10;;
77705;SDS011;66874;45.274;5.880;2023-05-09T11:12:52;1.35;;;1.25;;
77705;SDS011;66874;45.274;5.880;2023-05-09T11:15:18;2.00;;;1.23;;
77705;SDS011;66874;45.274;5.880;2023-05-09T11:17:44;1.13;;;1.10;;
77705;SDS011;66874;45.274;5.880;2023-05-09T11:20:15;1.88;;;1.30;;
77705;SDS011;66874;45.274;5.880;2023-05-09T11:22:41;1.60;;;1.40;;
77705;SDS011;66874;45.274;5.880;2023-05-09T11:25:08;2.70;;;1.20;;
77705;SDS011;66874;45.274;5.880;2023-05-09T11:27:41;4.72;;;1.35;;
77705;SDS011;66874;45.274;5.880;2023-05-09T11:30:09;2.55;;;1.40;;
77705;SDS011;66874;45.274;5.880;2023-05-09T11:32:42;3.17;;;1.20;;
77705;SDS011;66874;45.274;5.880;2023-05-09T11:40:31;3.00;;;1.50;;
77705;SDS011;66874;45.274;5.880;2023-05-09T11:45:26;1.50;;;1.30;;
77705;SDS011;66874;45.274;5.880;2023-05-09T11:47:53;1.63;;;1.35;;
77705;SDS011;66874;45.274;5.880;2023-05-09T11:50:18;1.58;;;1.45;;
77705;SDS011;66874;45.274;5.880;2023-05-09T11:52:45;9.43;;;2.00;;
77705;SDS011;66874;45.274;5.880;2023-05-09T11:55:14;1.98;;;1.70;;
77705;SDS011;66874;45.274;5.880;2023-05-09T11:57:42;2.22;;;1.63;;
77705;SDS011;66874;45.274;5.880;2023-05-09T12:00:15;3.28;;;1.70;;
77705;SDS011;66874;45.274;5.880;2023-05-09T12:02:45;1.85;;;1.40;;
77705;SDS011;66874;45.274;5.880;2023-05-09T12:05:12;4.78;;;1.95;;
77705;SDS011;66874;45.274;5.880;2023-05-09T12:07:39;4.13;;;1.77;;
77705;SDS011;66874;45.274;5.880;2023-05-09T12:10:06;2.85;;;1.83;;
77705;SDS011;66874;45.274;5.880;2023-05-09T12:12:43;6.07;;;1.90;;
77705;SDS011;66874;45.274;5.880;2023-05-09T12:15:10;2.92;;;1.90;;
77705;SDS011;66874;45.274;5.880;2023-05-09T12:17:37;6.65;;;2.38;;
77705;SDS011;66874;45.274;5.880;2023-05-09T12:20:03;5.03;;;2.58;;
77705;SDS011;66874;45.274;5.880;2023-05-09T12:22:30;5.13;;;2.28;;
77705;SDS011;66874;45.274;5.880;2023-05-09T12:24:56;6.35;;;2.45;;
77705;SDS011;66874;45.274;5.880;2023-05-09T12:27:25;6.85;;;2.70;;
77705;SDS011;66874;45.274;5.880;2023-05-09T12:29:52;7.75;;;2.42;;
77705;SDS011;66874;45.274;5.880;2023-05-09T12:32:17;6.55;;;2.97;;
77705;SDS011;66874;45.274;5.880;2023-05-09T12:34:43;3.17;;;2.15;;
77705;SDS011;66874;45.274;5.880;2023-05-09T12:37:19;3.03;;;2.72;;
77705;SDS011;66874;45.274;5.880;2023-05-09T12:42:41;3.50;;;2.35;;
77705;SDS011;66874;45.274;5.880;2023-05-09T12:45:08;5.18;;;2.75;;
77705;SDS011;66874;45.274;5.880;2023-05-09T12:47:34;3.50;;;2.40;;
77705;SDS011;66874;45.274;5.880;2023-05-09T12:50:01;3.28;;;2.80;;
77705;SDS011;66874;45.274;5.880;2023-05-09T12:52:37;5.03;;;2.90;;
77705;SDS011;66874;45.274;5.880;2023-05-09T12:55:07;5.88;;;2.20;;
77705;SDS011;66874;45.274;5.880;2023-05-09T12:57:36;6.88;;;2.88;;
77705;SDS011;66874;45.274;5.880;2023-05-09T13:00:04;7.25;;;2.92;;
77705;SDS011;66874;45.274;5.880;2023-05-09T13:02:35;4.93;;;2.75;;
77705;SDS011;66874;45.274;5.880;2023-05-09T13:05:07;3.10;;;2.80;;
77705;SDS011;66874;45.274;5.880;2023-05-09T13:07:41;10.73;;;3.05;;
77705;SDS011;66874;45.274;5.880;2023-05-09T13:10:18;3.63;;;3.00;;
77705;SDS011;66874;45.274;5.880;2023-05-09T13:12:47;2.63;;;2.35;;
77705;SDS011;66874;45.274;5.880;2023-05-09T13:15:16;7.35;;;2.38;;
77705;SDS011;66874;45.274;5.880;2023-05-09T13:17:45;6.03;;;2.40;;
77705;SDS011;66874;45.274;5.880;2023-05-09T13:20:11;5.53;;;2.03;;
77705;SDS011;66874;45.274;5.880;2023-05-09T13:22:36;5.70;;;2.58;;
77705;SDS011;66874;45.274;5.880;2023-05-09T13:25:02;4.90;;;2.95;;
77705;SDS011;66874;45.274;5.880;2023-05-09T13:27:28;8.50;;;2.80;;
77705;SDS011;66874;45.274;5.880;2023-05-09T13:29:53;6.00;;;2.80;;
77705;SDS011;66874;45.274;5.880;2023-05-09T13:32:20;3.30;;;2.25;;
77705;SDS011;66874;45.274;5.880;2023-05-09T13:34:45;4.05;;;2.70;;
77705;SDS011;66874;45.274;5.880;2023-05-09T13:37:11;4.05;;;2.53;;
77705;SDS011;66874;45.274;5.880;2023-05-09T13:39:36;5.28;;;2.65;;
77705;SDS011;66874;45.274;5.880;2023-05-09T13:42:02;5.18;;;2.13;;
77705;SDS011;66874;45.274;5.880;2023-05-09T13:44:28;3.40;;;2.28;;
77705;SDS011;66874;45.274;5.880;2023-05-09T13:46:53;3.63;;;2.25;;
77705;SDS011;66874;45.274;5.880;2023-05-09T13:49:19;2.40;;;2.20;;
77705;SDS011;66874;45.274;5.880;2023-05-09T13:51:44;3.45;;;2.92;;
77705;SDS011;66874;45.274;5.880;2023-05-09T13:54:09;7.88;;;2.85;;
77705;SDS011;66874;45.274;5.880;2023-05-09T13:56:41;6.85;;;3.00;;
77705;SDS011;66874;45.274;5.880;2023-05-09T13:59:07;6.50;;;2.50;;
77705;SDS011;66874;45.274;5.880;2023-05-09T14:01:33;12.13;;;2.78;;
77705;SDS011;66874;45.274;5.880;2023-05-09T14:03:59;5.15;;;2.85;;
77705;SDS011;66874;45.274;5.880;2023-05-09T14:06:24;4.63;;;2.30;;
77705;SDS011;66874;45.274;5.880;2023-05-09T14:08:50;2.67;;;2.15;;
77705;SDS011;66874;45.274;5.880;2023-05-09T14:11:15;2.85;;;2.17;;
77705;SDS011;66874;45.274;5.880;2023-05-09T14:13:41;2.13;;;1.92;;
77705;SDS011;66874;45.274;5.880;2023-05-09T14:16:06;4.15;;;3.03;;
77705;SDS011;66874;45.274;5.880;2023-05-09T14:18:32;5.75;;;2.65;;
77705;SDS011;66874;45.274;5.880;2023-05-09T14:20:58;4.10;;;2.28;;
77705;SDS011;66874;45.274;5.880;2023-05-09T14:23:23;5.25;;;2.03;;
77705;SDS011;66874;45.274;5.880;2023-05-09T14:25:48;4.25;;;2.20;;
77705;SDS011;66874;45.274;5.880;2023-05-09T14:28:14;2.92;;;1.75;;
77705;SDS011;66874;45.274;5.880;2023-05-09T14:30:40;9.05;;;2.35;;
77705;SDS011;66874;45.274;5.880;2023-05-09T14:33:05;2.63;;;2.42;;
77705;SDS011;66874;45.274;5.880;2023-05-09T14:35:31;6.47;;;2.45;;
77705;SDS011;66874;45.274;5.880;2023-05-09T14:37:58;6.17;;;3.37;;
77705;SDS011;66874;45.274;5.880;2023-05-09T14:40:24;7.47;;;3.47;;
77705;SDS011;66874;45.274;5.880;2023-05-09T14:42:55;8.15;;;3.30;;
77705;SDS011;66874;45.274;5.880;2023-05-09T14:45:21;7.00;;;3.13;;
77705;SDS011;66874;45.274;5.880;2023-05-09T14:47:46;4.70;;;3.58;;
77705;SDS011;66874;45.274;5.880;2023-05-09T14:50:12;9.32;;;3.85;;
77705;SDS011;66874;45.274;5.880;2023-05-09T14:52:39;5.57;;;4.18;;
77705;SDS011;66874;45.274;5.880;2023-05-09T14:55:05;7.18;;;3.72;;
77705;SDS011;66874;45.274;5.880;2023-05-09T14:57:31;6.88;;;4.40;;
77705;SDS011;66874;45.274;5.880;2023-05-09T14:59:57;6.75;;;4.70;;
77705;SDS011;66874;45.274;5.880;2023-05-09T15:02:23;7.40;;;4.22;;
77705;SDS011;66874;45.274;5.880;2023-05-09T15:04:48;7.35;;;3.92;;
77705;SDS011;66874;45.274;5.880;2023-05-09T15:07:14;5.70;;;4.00;;
77705;SDS011;66874;45.274;5.880;2023-05-09T15:09:39;5.35;;;3.17;;
77705;SDS011;66874;45.274;5.880;2023-05-09T15:12:04;5.63;;;3.42;;